Time;durP1;ratioP1;P1;durP2;ratioP2;P2;SDS_P1;SDS_P2;PMS_P1;PMS_P2;Temp;Humidity;BMP_temperature;BMP_pressure;BME280_temperature;BME280_humidity;BME280_pressure;Samples;Min_cycle;Max_cycle;Signal;HPM_P1;HPM_P2
2022/07/26 00:00:38;;;;;;;6.40;1.85;;;;;;;;;;5145647;27;20201;-71
2022/07/26 00:03:04;;;;;;;3.40;1.45;;;;;;;;;;5145214;27;20198;-71
2022/07/26 00:05:30;;;;;;;3.28;1.67;;;;;;;;;;5145169;27;20209;-71
2022/07/26 00:08:09;;;;;;;6.03;1.63;;;;;;;;;;5145182;27;20198;-71
2022/07/26 00:10:37;;;;;;;1.73;1.63;;;;;;;;;;5145655;27;20409;-71
2022/07/26 00:13:03;;;;;;;3.47;1.48;;;;;;;;;;5145148;27;20205;-71
2022/07/26 00:15:29;;;;;;;1.90;1.80;;;;;;;;;;5145118;27;20214;-71
2022/07/26 00:17:56;;;;;;;3.60;1.65;;;;;;;;;;5145063;27;20509;-71
2022/07/26 00:20:22;;;;;;;2.25;1.67;;;;;;;;;;5145077;27;20519;-71
2022/07/26 00:22:48;;;;;;;5.82;1.73;;;;;;;;;;5144961;27;20194;-71
2022/07/26 00:25:14;;;;;;;4.95;1.73;;;;;;;;;;5145287;27;20202;-71
2022/07/26 00:27:42;;;;;;;2.15;1.80;;;;;;;;;;5144795;27;20197;-71
2022/07/26 00:30:09;;;;;;;3.95;1.85;;;;;;;;;;5145392;27;20246;-71
2022/07/26 00:32:36;;;;;;;1.85;1.75;;;;;;;;;;5144972;27;20524;-71
2022/07/26 00:35:02;;;;;;;3.88;1.92;;;;;;;;;;5144807;27;20213;-71
2022/07/26 00:37:28;;;;;;;4.95;1.70;;;;;;;;;;5144807;27;20197;-71
2022/07/26 00:39:55;;;;;;;4.35;1.80;;;;;;;;;;5144993;27;20201;-71
2022/07/26 00:42:21;;;;;;;1.98;1.40;;;;;;;;;;5144877;27;20194;-71
2022/07/26 00:44:49;;;;;;;2.60;1.63;;;;;;;;;;5144729;27;20200;-71
2022/07/26 00:47:15;;;;;;;2.08;1.45;;;;;;;;;;5144570;27;20501;-71
2022/07/26 00:49:42;;;;;;;2.92;1.40;;;;;;;;;;5144947;27;20428;-71
2022/07/26 00:52:09;;;;;;;3.13;1.90;;;;;;;;;;5144803;27;20201;-71
2022/07/26 00:54:36;;;;;;;2.80;1.70;;;;;;;;;;5144478;27;20206;-71
2022/07/26 00:57:02;;;;;;;3.45;1.67;;;;;;;;;;5144291;27;20194;-70
2022/07/26 00:59:29;;;;;;;3.38;1.20;;;;;;;;;;5144550;27;20194;-71
2022/07/26 01:01:56;;;;;;;1.40;1.30;;;;;;;;;;5144413;27;20198;-71
2022/07/26 01:04:23;;;;;;;6.93;1.42;;;;;;;;;;5144599;27;20220;-71
2022/07/26 01:06:49;;;;;;;1.45;1.42;;;;;;;;;;5143748;27;20252;-71
2022/07/26 01:09:16;;;;;;;2.35;1.50;;;;;;;;;;5144371;27;20200;-71
2022/07/26 01:11:42;;;;;;;2.33;1.40;;;;;;;;;;5144314;27;20194;-71
2022/07/26 01:14:09;;;;;;;1.77;1.63;;;;;;;;;;5143677;27;20516;-71
2022/07/26 01:16:35;;;;;;;8.93;1.20;;;;;;;;;;5142992;27;20218;-71
2022/07/26 01:19:02;;;;;;;2.78;1.10;;;;;;;;;;5143967;27;20245;-71
2022/07/26 01:21:30;;;;;;;4.60;1.10;;;;;;;;;;5144391;27;20462;-70
2022/07/26 01:23:56;;;;;;;4.95;0.80;;;;;;;;;;5144003;27;20194;-70
2022/07/26 01:26:23;;;;;;;1.10;0.90;;;;;;;;;;5143571;27;20190;-70
2022/07/26 01:28:50;;;;;;;3.97;1.00;;;;;;;;;;5144187;27;20431;-70
2022/07/26 01:31:16;;;;;;;2.08;0.90;;;;;;;;;;5143873;27;20201;-70
2022/07/26 01:33:43;;;;;;;0.90;0.90;;;;;;;;;;5143974;27;20358;-70
2022/07/26 01:36:11;;;;;;;4.50;0.90;;;;;;;;;;5143640;27;20446;-70
2022/07/26 01:38:38;;;;;;;2.05;0.90;;;;;;;;;;5143835;27;20459;-70
2022/07/26 01:41:05;;;;;;;1.02;0.90;;;;;;;;;;5143952;27;20418;-70
2022/07/26 01:43:31;;;;;;;3.25;0.98;;;;;;;;;;5143979;27;20426;-70
2022/07/26 01:45:57;;;;;;;4.22;1.08;;;;;;;;;;5143719;27;20490;-70
2022/07/26 01:48:24;;;;;;;1.52;1.30;;;;;;;;;;5143684;27;20539;-70
2022/07/26 01:50:50;;;;;;;5.93;1.38;;;;;;;;;;5143683;27;20383;-70
2022/07/26 01:53:16;;;;;;;1.77;1.02;;;;;;;;;;5143688;27;20209;-70
2022/07/26 01:55:44;;;;;;;2.35;1.13;;;;;;;;;;5143985;27;20217;-70
2022/07/26 01:58:10;;;;;;;0.90;0.90;;;;;;;;;;5143438;27;20379;-70
2022/07/26 02:00:36;;;;;;;2.50;1.00;;;;;;;;;;5143493;27;20538;-70
2022/07/26 02:03:03;;;;;;;2.42;1.27;;;;;;;;;;5143396;27;20194;-70
2022/07/26 02:05:29;;;;;;;2.38;1.30;;;;;;;;;;5143628;27;20210;-71
2022/07/26 02:07:55;;;;;;;1.75;1.40;;;;;;;;;;5143050;28;20196;-71
2022/07/26 02:10:22;;;;;;;1.00;1.00;;;;;;;;;;5143322;28;20231;-71
2022/07/26 02:12:49;;;;;;;1.83;1.27;;;;;;;;;;5143631;28;20221;-70
2022/07/26 02:15:16;;;;;;;2.55;1.45;;;;;;;;;;5143167;28;20221;-70
2022/07/26 02:17:43;;;;;;;1.00;0.90;;;;;;;;;;5143071;28;20490;-70
2022/07/26 02:20:09;;;;;;;3.90;1.10;;;;;;;;;;5143265;28;20445;-70
2022/07/26 02:22:36;;;;;;;2.58;1.10;;;;;;;;;;5143305;27;20198;-70
2022/07/26 02:25:02;;;;;;;2.13;1.23;;;;;;;;;;5143360;28;20194;-70
2022/07/26 02:27:28;;;;;;;1.40;1.30;;;;;;;;;;5145693;27;20423;-71
2022/07/26 02:29:56;;;;;;;1.00;1.00;;;;;;;;;;5150685;27;20202;-71
2022/07/26 02:32:22;;;;;;;4.40;1.60;;;;;;;;;;5147872;27;20198;-71
2022/07/26 02:34:48;;;;;;;1.20;1.15;;;;;;;;;;5147294;27;20198;-71
2022/07/26 02:37:14;;;;;;;1.27;1.27;;;;;;;;;;5147422;27;20545;-71
2022/07/26 02:39:41;;;;;;;2.00;1.00;;;;;;;;;;5147524;27;20194;-71
2022/07/26 02:42:07;;;;;;;4.47;1.20;;;;;;;;;;5147221;27;20231;-71
2022/07/26 02:44:34;;;;;;;1.23;1.23;;;;;;;;;;5147301;27;20231;-71
2022/07/26 02:47:02;;;;;;;1.60;1.13;;;;;;;;;;5146968;27;20228;-71
2022/07/26 02:49:28;;;;;;;1.38;1.02;;;;;;;;;;5146980;27;20194;-71
2022/07/26 02:51:54;;;;;;;1.00;1.00;;;;;;;;;;5147186;27;20239;-71
2022/07/26 02:54:21;;;;;;;1.50;1.13;;;;;;;;;;5146904;27;20194;-71
2022/07/26 02:56:47;;;;;;;1.40;1.23;;;;;;;;;;5146799;27;20460;-71
2022/07/26 02:59:13;;;;;;;1.40;1.20;;;;;;;;;;5146885;27;20485;-71
2022/07/26 03:01:40;;;;;;;1.88;1.15;;;;;;;;;;5146846;27;20240;-71
2022/07/26 03:04:07;;;;;;;1.30;1.20;;;;;;;;;;5146548;27;20562;-71
2022/07/26 03:06:34;;;;;;;2.03;1.25;;;;;;;;;;5146444;27;20218;-71
2022/07/26 03:09:00;;;;;;;1.00;1.00;;;;;;;;;;5146871;27;20383;-71
2022/07/26 03:11:26;;;;;;;1.05;1.00;;;;;;;;;;5146697;27;20498;-71
2022/07/26 03:13:53;;;;;;;1.55;1.00;;;;;;;;;;5146651;27;20194;-71
2022/07/26 03:16:19;;;;;;;2.05;1.10;;;;;;;;;;5146250;27;20221;-71
2022/07/26 03:18:45;;;;;;;1.15;1.05;;;;;;;;;;5146299;27;20189;-71
2022/07/26 03:21:13;;;;;;;2.15;1.15;;;;;;;;;;5146380;27;20209;-71
2022/07/26 03:23:39;;;;;;;2.15;1.08;;;;;;;;;;5146587;27;20251;-71
2022/07/26 03:26:06;;;;;;;1.05;0.98;;;;;;;;;;5146208;27;20198;-71
2022/07/26 03:28:32;;;;;;;1.77;0.95;;;;;;;;;;5146345;27;20198;-71
2022/07/26 03:30:59;;;;;;;1.33;1.10;;;;;;;;;;5146216;27;20571;-71
2022/07/26 03:33:25;;;;;;;1.63;1.35;;;;;;;;;;5146116;27;20202;-71
2022/07/26 03:35:51;;;;;;;1.88;1.85;;;;;;;;;;5146251;27;20218;-71
2022/07/26 03:38:19;;;;;;;3.58;2.08;;;;;;;;;;5145020;27;20194;-71
2022/07/26 03:40:45;;;;;;;1.55;1.45;;;;;;;;;;5146220;27;20563;-71
2022/07/26 03:43:11;;;;;;;2.28;1.40;;;;;;;;;;5145934;27;20239;-71
2022/07/26 03:45:38;;;;;;;4.53;1.60;;;;;;;;;;5145896;27;20243;-71
2022/07/26 03:48:04;;;;;;;1.85;1.48;;;;;;;;;;5145966;27;20555;-71
2022/07/26 03:50:31;;;;;;;1.52;1.40;;;;;;;;;;5146130;27;20194;-71
2022/07/26 03:52:57;;;;;;;2.53;1.10;;;;;;;;;;5146032;27;20436;-71
2022/07/26 03:58:08;;;;;;;1.30;1.30;;;;;;;;;;5145572;27;20201;-71
2022/07/26 04:00:34;;;;;;;5.35;1.40;;;;;;;;;;5145616;27;20216;-71
2022/07/26 04:03:00;;;;;;;1.73;1.60;;;;;;;;;;5146035;27;20311;-71
2022/07/26 04:05:27;;;;;;;1.40;1.30;;;;;;;;;;5145576;27;20267;-71
2022/07/26 04:07:53;;;;;;;2.17;1.40;;;;;;;;;;5145290;27;20194;-71
2022/07/26 04:10:20;;;;;;;2.15;1.42;;;;;;;;;;5145362;27;20194;-71
2022/07/26 04:12:47;;;;;;;3.28;1.40;;;;;;;;;;5145262;27;20233;-71
2022/07/26 04:15:15;;;;;;;3.53;1.60;;;;;;;;;;5145492;27;20198;-71
2022/07/26 04:17:42;;;;;;;3.53;1.48;;;;;;;;;;5145051;27;20218;-69
2022/07/26 04:20:09;;;;;;;1.40;1.40;;;;;;;;;;5145269;27;20194;-69
2022/07/26 04:22:35;;;;;;;2.03;1.52;;;;;;;;;;5145548;27;20198;-69
2022/07/26 04:25:01;;;;;;;1.33;1.15;;;;;;;;;;5145104;27;20238;-69
2022/07/26 04:27:28;;;;;;;1.48;1.38;;;;;;;;;;5144703;27;20194;-69
2022/07/26 04:29:55;;;;;;;2.22;1.33;;;;;;;;;;5145302;27;20255;-69
2022/07/26 04:32:22;;;;;;;1.35;1.25;;;;;;;;;;5145246;27;20198;-69
2022/07/26 04:34:48;;;;;;;2.92;1.30;;;;;;;;;;5145070;27;20194;-69
2022/07/26 04:37:14;;;;;;;1.35;1.35;;;;;;;;;;5144790;27;20213;-69
2022/07/26 04:39:41;;;;;;;1.48;1.38;;;;;;;;;;5144945;27;20231;-69
2022/07/26 04:42:07;;;;;;;2.53;1.67;;;;;;;;;;5145494;27;20202;-69
2022/07/26 04:44:33;;;;;;;1.20;1.10;;;;;;;;;;5144804;27;20194;-69
2022/07/26 04:47:01;;;;;;;2.88;1.25;;;;;;;;;;5144292;27;20189;-69
2022/07/26 04:49:27;;;;;;;2.85;1.45;;;;;;;;;;5144693;27;20513;-69
2022/07/26 04:51:53;;;;;;;1.17;1.17;;;;;;;;;;5145041;27;20206;-69
2022/07/26 04:54:21;;;;;;;1.70;1.42;;;;;;;;;;5144360;27;20434;-69
2022/07/26 04:56:47;;;;;;;4.07;1.40;;;;;;;;;;5144045;27;20217;-69
2022/07/26 04:59:14;;;;;;;3.13;1.60;;;;;;;;;;5144514;27;20239;-69
2022/07/26 05:01:40;;;;;;;2.55;1.60;;;;;;;;;;5144647;27;20610;-69
2022/07/26 05:04:08;;;;;;;4.70;2.47;;;;;;;;;;5144579;27;20516;-69
2022/07/26 05:06:34;;;;;;;1.70;1.60;;;;;;;;;;5144182;27;20216;-69
2022/07/26 05:09:00;;;;;;;1.50;1.50;;;;;;;;;;5144333;27;20200;-69
2022/07/26 05:11:27;;;;;;;2.08;1.88;;;;;;;;;;5144392;27;20194;-69
2022/07/26 05:13:53;;;;;;;2.40;1.60;;;;;;;;;;5144526;27;20201;-69
2022/07/26 05:16:19;;;;;;;2.00;1.63;;;;;;;;;;5144045;27;20225;-69
2022/07/26 05:18:45;;;;;;;1.92;1.67;;;;;;;;;;5144288;27;20198;-69
2022/07/26 05:21:13;;;;;;;1.92;1.50;;;;;;;;;;5144084;27;20194;-69
2022/07/26 05:23:39;;;;;;;1.60;1.50;;;;;;;;;;5143966;27;20194;-69
2022/07/26 05:26:06;;;;;;;2.03;1.75;;;;;;;;;;5144115;27;20416;-69
2022/07/26 05:28:32;;;;;;;4.15;1.80;;;;;;;;;;5144277;27;20201;-69
2022/07/26 05:30:58;;;;;;;3.08;1.40;;;;;;;;;;5144118;27;20194;-69
2022/07/26 05:33:24;;;;;;;4.10;1.80;;;;;;;;;;5144012;27;20416;-69
2022/07/26 05:35:50;;;;;;;3.65;1.33;;;;;;;;;;5144034;27;20619;-69
2022/07/26 05:38:19;;;;;;;2.97;1.70;;;;;;;;;;5143594;27;20198;-69
2022/07/26 05:40:45;;;;;;;1.77;1.67;;;;;;;;;;5143947;27;20194;-69
2022/07/26 05:43:12;;;;;;;1.60;1.50;;;;;;;;;;5144031;27;20194;-69
2022/07/26 05:45:38;;;;;;;2.47;1.45;;;;;;;;;;5144086;27;20239;-68
2022/07/26 05:48:04;;;;;;;1.30;1.30;;;;;;;;;;5143392;27;20197;-68
2022/07/26 05:50:31;;;;;;;1.92;1.55;;;;;;;;;;5143829;27;20194;-68
2022/07/26 05:52:58;;;;;;;4.53;1.60;;;;;;;;;;5143490;27;20442;-68
2022/07/26 05:55:26;;;;;;;2.83;1.70;;;;;;;;;;5144073;27;20208;-68
2022/07/26 05:57:52;;;;;;;4.80;1.67;;;;;;;;;;5143490;27;20255;-68
2022/07/26 06:00:19;;;;;;;4.13;1.40;;;;;;;;;;5143717;27;20555;-68
2022/07/26 06:02:46;;;;;;;2.33;1.63;;;;;;;;;;5143281;27;20498;-68
2022/07/26 06:05:14;;;;;;;3.63;1.60;;;;;;;;;;5143301;27;20217;-68
2022/07/26 06:07:40;;;;;;;2.97;1.67;;;;;;;;;;5143537;27;20190;-68
2022/07/26 06:10:07;;;;;;;2.95;1.45;;;;;;;;;;5143270;27;20231;-68
2022/07/26 06:12:35;;;;;;;1.92;1.65;;;;;;;;;;5143345;28;20501;-68
2022/07/26 06:15:01;;;;;;;2.33;1.58;;;;;;;;;;5143419;27;20387;-68
2022/07/26 06:17:28;;;;;;;2.22;2.00;;;;;;;;;;5143133;28;20266;-68
2022/07/26 06:19:55;;;;;;;2.00;1.65;;;;;;;;;;5143312;28;20194;-70
2022/07/26 06:22:21;;;;;;;3.67;1.40;;;;;;;;;;5047438;28;20259;-61
2022/07/26 06:24:47;;;;;;;2.05;1.60;;;;;;;;;;5032000;28;20214;-62
2022/07/26 06:27:13;;;;;;;4.35;1.75;;;;;;;;;;5032915;28;20212;-62
2022/07/26 06:29:41;;;;;;;3.63;1.80;;;;;;;;;;5030907;28;20299;-61
2022/07/26 06:32:07;;;;;;;1.70;1.60;;;;;;;;;;5031808;28;20215;-61
2022/07/26 06:34:33;;;;;;;4.68;1.63;;;;;;;;;;5031518;28;20255;-60
2022/07/26 06:37:00;;;;;;;4.57;1.63;;;;;;;;;;5031456;28;20231;-61
2022/07/26 06:39:26;;;;;;;5.00;1.60;;;;;;;;;;5032220;28;20251;-61
2022/07/26 06:41:52;;;;;;;4.78;1.70;;;;;;;;;;5031579;28;20213;-62
2022/07/26 06:44:18;;;;;;;2.05;1.48;;;;;;;;;;5031724;28;20520;-61
2022/07/26 06:46:46;;;;;;;3.80;1.50;;;;;;;;;;5031523;28;20333;-61
2022/07/26 06:49:13;;;;;;;2.85;1.63;;;;;;;;;;5028529;28;20307;-61
2022/07/26 06:51:39;;;;;;;7.25;1.50;;;;;;;;;;5031011;28;20645;-61
2022/07/26 06:54:05;;;;;;;3.28;1.38;;;;;;;;;;5031091;28;20225;-61
2022/07/26 06:56:32;;;;;;;1.42;1.30;;;;;;;;;;5030992;28;20427;-61
2022/07/26 06:58:58;;;;;;;8.63;1.88;;;;;;;;;;5031065;28;20240;-62
2022/07/26 07:01:24;;;;;;;5.15;1.20;;;;;;;;;;5031238;28;20618;-62
2022/07/26 07:03:52;;;;;;;5.88;1.30;;;;;;;;;;5031231;28;20720;-62
2022/07/26 07:06:18;;;;;;;2.33;1.10;;;;;;;;;;5031022;28;20398;-62
2022/07/26 07:08:47;;;;;;;2.95;1.15;;;;;;;;;;5030346;28;20566;-61
2022/07/26 07:11:13;;;;;;;2.75;0.82;;;;;;;;;;5030977;28;20222;-62
2022/07/26 07:13:39;;;;;;;2.88;1.38;;;;;;;;;;5030727;28;20252;-61
2022/07/26 07:16:06;;;;;;;1.55;1.30;;;;;;;;;;5033754;28;20209;-62
2022/07/26 07:18:32;;;;;;;5.45;1.35;;;;;;;;;;5034958;28;20425;-63
2022/07/26 07:20:59;;;;;;;2.78;1.20;;;;;;;;;;5037023;28;20217;-62
2022/07/26 07:23:26;;;;;;;4.00;1.25;;;;;;;;;;5034157;28;20332;-62
2022/07/26 07:25:52;;;;;;;2.65;1.17;;;;;;;;;;5034116;28;20270;-61
2022/07/26 07:28:18;;;;;;;3.30;1.60;;;;;;;;;;5034243;28;20209;-60
2022/07/26 07:30:46;;;;;;;1.88;1.00;;;;;;;;;;5034510;28;20213;-62
2022/07/26 07:33:13;;;;;;;3.05;1.33;;;;;;;;;;5033482;28;20352;-61
2022/07/26 07:35:40;;;;;;;4.07;1.17;;;;;;;;;;5034027;28;20233;-61
2022/07/26 07:38:07;;;;;;;3.15;1.08;;;;;;;;;;5033065;28;20239;-61
2022/07/26 07:40:34;;;;;;;2.63;1.10;;;;;;;;;;5034001;28;20455;-61
2022/07/26 07:43:00;;;;;;;1.70;1.00;;;;;;;;;;5033536;28;20554;-61
2022/07/26 07:45:26;;;;;;;2.10;1.30;;;;;;;;;;5033108;28;20213;-61
2022/07/26 07:47:52;;;;;;;4.07;1.27;;;;;;;;;;5032828;28;20254;-61
2022/07/26 07:50:19;;;;;;;4.10;1.10;;;;;;;;;;5034123;28;20221;-60
2022/07/26 07:52:45;;;;;;;1.90;0.90;;;;;;;;;;5033218;28;20225;-60
2022/07/26 07:55:12;;;;;;;1.52;1.08;;;;;;;;;;5033781;28;20291;-62
2022/07/26 07:57:39;;;;;;;2.90;1.17;;;;;;;;;;5032898;28;20508;-61
2022/07/26 08:00:06;;;;;;;4.35;0.95;;;;;;;;;;5033455;28;20536;-61
2022/07/26 08:02:32;;;;;;;2.75;0.90;;;;;;;;;;5033067;28;20285;-62
2022/07/26 08:04:59;;;;;;;3.35;0.90;;;;;;;;;;5033185;28;20460;-61
2022/07/26 08:07:25;;;;;;;2.20;1.40;;;;;;;;;;5033132;27;20552;-61
2022/07/26 08:09:51;;;;;;;2.60;1.10;;;;;;;;;;5033470;28;20559;-61
2022/07/26 08:12:19;;;;;;;3.67;1.00;;;;;;;;;;5033031;28;20217;-61
2022/07/26 08:14:45;;;;;;;7.40;1.10;;;;;;;;;;5030365;28;20258;-62
2022/07/26 08:17:11;;;;;;;1.92;0.80;;;;;;;;;;5032740;28;20228;-62
2022/07/26 08:19:37;;;;;;;4.35;0.95;;;;;;;;;;5033202;28;20205;-62
2022/07/26 08:22:04;;;;;;;0.93;0.93;;;;;;;;;;5033428;28;20235;-62
2022/07/26 08:24:30;;;;;;;2.88;1.02;;;;;;;;;;5032408;28;20521;-62
2022/07/26 08:26:57;;;;;;;2.63;0.98;;;;;;;;;;5031912;28;20532;-62
2022/07/26 08:29:24;;;;;;;2.47;0.90;;;;;;;;;;5033223;28;20258;-62
2022/07/26 08:31:51;;;;;;;1.40;0.90;;;;;;;;;;5032754;28;20213;-61
2022/07/26 08:34:17;;;;;;;4.93;1.08;;;;;;;;;;5032586;28;20251;-62
2022/07/26 08:36:44;;;;;;;5.05;1.13;;;;;;;;;;5032951;28;20670;-61
2022/07/26 08:39:10;;;;;;;3.13;0.93;;;;;;;;;;5032436;28;20213;-61
2022/07/26 08:41:39;;;;;;;1.58;0.88;;;;;;;;;;5032598;28;20221;-62
2022/07/26 08:44:05;;;;;;;2.03;1.00;;;;;;;;;;5032706;28;20241;-61
2022/07/26 08:46:34;;;;;;;2.22;0.70;;;;;;;;;;5033123;28;20217;-61
2022/07/26 08:49:00;;;;;;;2.60;0.85;;;;;;;;;;5033758;28;20402;-61
2022/07/26 08:51:26;;;;;;;5.32;1.00;;;;;;;;;;5032442;28;20217;-62
2022/07/26 08:53:54;;;;;;;1.02;0.90;;;;;;;;;;5032378;28;20209;-61
2022/07/26 08:56:20;;;;;;;3.53;0.77;;;;;;;;;;5032821;28;20560;-61
2022/07/26 08:58:46;;;;;;;5.38;0.90;;;;;;;;;;5032544;28;20464;-61
2022/07/26 09:01:13;;;;;;;5.05;1.05;;;;;;;;;;5032757;28;20470;-62
2022/07/26 09:03:41;;;;;;;3.28;1.17;;;;;;;;;;5032471;28;20254;-61
2022/07/26 09:06:11;;;;;;;3.85;0.82;;;;;;;;;;5032338;28;20229;-61
2022/07/26 09:08:37;;;;;;;0.80;0.80;;;;;;;;;;5032531;28;21210;-62
2022/07/26 09:11:25;;;;;;;2.53;0.90;;;;;;;;;;5032071;28;20268;-60
2022/07/26 09:13:51;;;;;;;2.30;0.80;;;;;;;;;;5031799;27;20209;-61
2022/07/26 09:16:18;;;;;;;2.90;0.82;;;;;;;;;;5031856;28;20205;-60
2022/07/26 09:18:45;;;;;;;4.78;0.80;;;;;;;;;;5033265;28;20244;-60
2022/07/26 09:21:25;;;;;;;2.65;0.93;;;;;;;;;;5031653;28;20233;-61
2022/07/26 09:23:51;;;;;;;5.03;1.08;;;;;;;;;;5029141;28;20556;-61
2022/07/26 09:26:20;;;;;;;1.08;0.90;;;;;;;;;;5031995;28;20254;-61
2022/07/26 09:28:52;;;;;;;2.85;0.75;;;;;;;;;;5032561;28;20606;-64
2022/07/26 09:31:22;;;;;;;3.17;0.90;;;;;;;;;;5032411;28;20337;-61
2022/07/26 09:33:50;;;;;;;0.75;0.75;;;;;;;;;;5037641;27;20217;-61
2022/07/26 09:36:17;;;;;;;2.08;0.73;;;;;;;;;;5031107;28;20470;-61
2022/07/26 09:38:44;;;;;;;3.17;1.00;;;;;;;;;;5028881;28;20479;-61
2022/07/26 09:41:18;;;;;;;2.53;0.77;;;;;;;;;;5032750;28;20380;-62
2022/07/26 09:43:44;;;;;;;2.88;0.60;;;;;;;;;;5027901;28;20241;-63
2022/07/26 09:46:10;;;;;;;1.63;0.60;;;;;;;;;;5032092;28;20243;-62
2022/07/26 09:48:38;;;;;;;4.35;0.98;;;;;;;;;;5031885;28;20447;-63
2022/07/26 09:51:05;;;;;;;0.80;0.80;;;;;;;;;;5031179;28;20227;-62
2022/07/26 09:53:38;;;;;;;1.50;0.90;;;;;;;;;;5031498;28;20217;-63
2022/07/26 09:56:04;;;;;;;3.22;0.70;;;;;;;;;;5031465;28;20435;-62
2022/07/26 09:58:32;;;;;;;1.85;0.80;;;;;;;;;;5031389;28;20559;-62
2022/07/26 10:00:58;;;;;;;3.67;0.77;;;;;;;;;;5031113;28;20230;-63
2022/07/26 10:03:24;;;;;;;4.57;1.10;;;;;;;;;;5030808;28;20258;-62
2022/07/26 10:05:51;;;;;;;0.98;0.77;;;;;;;;;;5031245;28;20233;-61
2022/07/26 10:08:19;;;;;;;2.35;1.05;;;;;;;;;;5032501;28;20210;-61
2022/07/26 10:10:47;;;;;;;3.58;0.82;;;;;;;;;;5032794;28;20217;-61
2022/07/26 10:13:14;;;;;;;2.58;0.80;;;;;;;;;;5031388;28;20547;-62
2022/07/26 10:15:41;;;;;;;1.10;0.70;;;;;;;;;;5031237;28;20257;-63
2022/07/26 10:18:08;;;;;;;4.00;0.70;;;;;;;;;;5031338;28;20800;-62
2022/07/26 10:20:45;;;;;;;2.15;0.63;;;;;;;;;;5031717;28;20354;-62
2022/07/26 10:23:30;;;;;;;4.32;0.70;;;;;;;;;;5031442;28;20500;-62
2022/07/26 10:25:57;;;;;;;2.15;0.80;;;;;;;;;;5030640;28;20217;-61
2022/07/26 10:28:25;;;;;;;2.80;0.80;;;;;;;;;;5031375;28;20209;-62
2022/07/26 10:30:52;;;;;;;4.25;0.85;;;;;;;;;;5031674;28;20213;-64
2022/07/26 10:33:19;;;;;;;2.28;0.73;;;;;;;;;;5030742;28;20568;-61
2022/07/26 10:35:46;;;;;;;4.32;0.80;;;;;;;;;;5031697;28;20209;-62
2022/07/26 10:38:13;;;;;;;1.65;0.80;;;;;;;;;;5031572;28;20233;-62
2022/07/26 10:40:55;;;;;;;4.28;0.90;;;;;;;;;;5031525;28;20213;-62
2022/07/26 10:43:22;;;;;;;1.70;0.55;;;;;;;;;;5031518;28;20217;-61
2022/07/26 10:45:49;;;;;;;1.10;0.70;;;;;;;;;;5035977;28;20216;-61
2022/07/26 10:48:17;;;;;;;6.00;0.77;;;;;;;;;;5033269;28;20266;-62
2022/07/26 10:50:45;;;;;;;2.42;0.80;;;;;;;;;;5034756;28;20239;-62
2022/07/26 10:53:17;;;;;;;2.78;0.65;;;;;;;;;;5033521;28;20277;-61
2022/07/26 10:55:47;;;;;;;2.67;0.80;;;;;;;;;;5030608;28;20478;-61
2022/07/26 10:58:13;;;;;;;1.55;0.80;;;;;;;;;;5034618;28;20233;-61
2022/07/26 11:00:53;;;;;;;4.18;1.00;;;;;;;;;;5034341;28;20217;-62
2022/07/26 11:03:19;;;;;;;2.15;0.50;;;;;;;;;;5033577;28;20764;-61
2022/07/26 11:05:45;;;;;;;0.70;0.70;;;;;;;;;;5034834;27;20225;-61
2022/07/26 11:08:11;;;;;;;4.13;0.73;;;;;;;;;;5033954;28;20209;-61
2022/07/26 11:10:39;;;;;;;2.05;0.90;;;;;;;;;;5034531;28;20213;-61
2022/07/26 11:13:15;;;;;;;2.72;0.73;;;;;;;;;;5034050;28;20213;-61
2022/07/26 11:15:44;;;;;;;2.15;0.82;;;;;;;;;;5034001;28;20205;-61
2022/07/26 11:18:20;;;;;;;3.80;0.73;;;;;;;;;;5033360;28;20466;-61
2022/07/26 11:20:47;;;;;;;3.28;0.70;;;;;;;;;;5034514;28;20411;-61
2022/07/26 11:23:20;;;;;;;1.73;0.85;;;;;;;;;;5034036;28;20213;-61
2022/07/26 11:25:58;;;;;;;1.00;0.75;;;;;;;;;;5033889;28;20274;-61
2022/07/26 11:28:24;;;;;;;1.10;0.80;;;;;;;;;;5033390;28;20213;-62
2022/07/26 11:30:57;;;;;;;3.35;0.60;;;;;;;;;;5034053;28;20262;-62
2022/07/26 11:33:34;;;;;;;1.27;0.80;;;;;;;;;;5033347;28;20244;-62
2022/07/26 11:36:00;;;;;;;0.82;0.80;;;;;;;;;;5033282;28;20217;-62
2022/07/26 11:38:42;;;;;;;3.45;0.80;;;;;;;;;;5033846;28;20274;-61
2022/07/26 11:41:09;;;;;;;1.50;0.85;;;;;;;;;;5032686;28;20258;-61
2022/07/26 11:43:36;;;;;;;3.45;0.60;;;;;;;;;;5033084;28;20220;-62
2022/07/26 11:46:04;;;;;;;2.50;0.70;;;;;;;;;;5033416;28;20452;-61
2022/07/26 11:48:31;;;;;;;1.10;0.68;;;;;;;;;;5033111;28;20266;-61
2022/07/26 11:51:07;;;;;;;0.52;0.50;;;;;;;;;;5033034;28;20224;-62
2022/07/26 11:53:35;;;;;;;2.17;0.70;;;;;;;;;;5032950;28;20227;-60
2022/07/26 11:56:09;;;;;;;2.08;0.60;;;;;;;;;;5033512;28;20648;-62
2022/07/26 11:58:35;;;;;;;0.50;0.50;;;;;;;;;;5033262;28;20475;-61
2022/07/26 12:01:02;;;;;;;2.55;0.50;;;;;;;;;;5040496;28;20397;-61
2022/07/26 12:03:29;;;;;;;1.38;0.73;;;;;;;;;;5031987;28;20597;-62
2022/07/26 12:06:01;;;;;;;2.95;0.70;;;;;;;;;;5033692;28;20470;-63
2022/07/26 12:08:38;;;;;;;0.63;0.45;;;;;;;;;;5039571;27;20254;-62
2022/07/26 12:11:04;;;;;;;1.98;0.60;;;;;;;;;;5033079;28;20212;-62
2022/07/26 12:13:30;;;;;;;0.73;0.73;;;;;;;;;;5032924;28;20462;-61
2022/07/26 12:15:56;;;;;;;2.92;0.60;;;;;;;;;;5033066;28;20229;-61
2022/07/26 12:18:24;;;;;;;0.88;0.47;;;;;;;;;;5032642;28;20225;-61
2022/07/26 12:20:58;;;;;;;3.00;0.57;;;;;;;;;;5032522;28;20453;-61
2022/07/26 12:23:25;;;;;;;0.57;0.47;;;;;;;;;;5032759;28;20213;-61
2022/07/26 12:25:51;;;;;;;0.93;0.50;;;;;;;;;;5032372;28;20214;-62
2022/07/26 12:28:39;;;;;;;2.83;0.65;;;;;;;;;;5033282;28;20255;-61
2022/07/26 12:31:05;;;;;;;1.35;0.65;;;;;;;;;;5032880;28;20289;-62
2022/07/26 12:33:31;;;;;;;0.50;0.50;;;;;;;;;;5032838;28;20213;-62
2022/07/26 12:36:01;;;;;;;1.20;0.75;;;;;;;;;;5032576;27;20548;-62
2022/07/26 12:38:38;;;;;;;3.13;0.65;;;;;;;;;;5032908;28;20425;-63
2022/07/26 12:41:04;;;;;;;0.68;0.47;;;;;;;;;;5032280;28;20250;-63
2022/07/26 12:43:38;;;;;;;0.70;0.50;;;;;;;;;;5032087;27;20213;-61
2022/07/26 12:46:04;;;;;;;5.32;0.80;;;;;;;;;;5032739;28;20549;-61
2022/07/26 12:48:30;;;;;;;2.15;0.60;;;;;;;;;;5032691;28;20247;-61
2022/07/26 12:50:57;;;;;;;0.50;0.50;;;;;;;;;;5032310;28;20537;-60
2022/07/26 12:53:24;;;;;;;0.63;0.63;;;;;;;;;;5032171;28;20228;-61
2022/07/26 12:55:50;;;;;;;2.00;0.55;;;;;;;;;;5032335;28;20213;-61
2022/07/26 12:58:17;;;;;;;0.60;0.45;;;;;;;;;;5032627;28;20258;-61
2022/07/26 13:00:43;;;;;;;1.98;0.60;;;;;;;;;;5032977;28;20278;-60
2022/07/26 13:03:09;;;;;;;1.05;0.60;;;;;;;;;;5031667;28;20213;-61
2022/07/26 13:05:35;;;;;;;0.88;0.68;;;;;;;;;;5031891;28;20229;-61
2022/07/26 13:08:01;;;;;;;2.53;0.50;;;;;;;;;;5031868;28;21207;-62
2022/07/26 13:10:29;;;;;;;1.70;0.77;;;;;;;;;;5031922;28;20246;-62
2022/07/26 13:12:55;;;;;;;3.15;0.60;;;;;;;;;;5030402;28;20447;-62
2022/07/26 13:15:22;;;;;;;1.95;0.57;;;;;;;;;;5031902;28;20460;-62
2022/07/26 13:17:50;;;;;;;0.52;0.50;;;;;;;;;;5031125;28;20274;-62
2022/07/26 13:20:16;;;;;;;0.75;0.60;;;;;;;;;;5028959;28;20271;-62
2022/07/26 13:22:42;;;;;;;1.45;0.57;;;;;;;;;;5030892;28;20217;-62
2022/07/26 13:25:09;;;;;;;1.23;0.80;;;;;;;;;;5032784;28;20262;-62
2022/07/26 13:27:36;;;;;;;1.42;0.70;;;;;;;;;;5031905;28;20236;-61
2022/07/26 13:30:03;;;;;;;1.42;0.60;;;;;;;;;;5031056;28;20433;-71
2022/07/26 13:32:29;;;;;;;1.85;0.40;;;;;;;;;;5031424;27;20209;-71
2022/07/26 13:34:56;;;;;;;0.50;0.40;;;;;;;;;;5031402;28;20221;-71
2022/07/26 13:37:22;;;;;;;1.63;0.50;;;;;;;;;;5031168;28;20213;-71
2022/07/26 13:39:48;;;;;;;0.93;0.50;;;;;;;;;;5031719;28;20274;-71
2022/07/26 13:42:15;;;;;;;2.80;0.50;;;;;;;;;;5031395;28;20238;-71
2022/07/26 13:44:43;;;;;;;0.40;0.40;;;;;;;;;;5031229;28;20250;-71
2022/07/26 13:47:09;;;;;;;0.40;0.40;;;;;;;;;;5031691;28;20236;-71
2022/07/26 13:49:35;;;;;;;2.65;0.70;;;;;;;;;;5031070;28;20574;-71
2022/07/26 13:52:02;;;;;;;0.55;0.50;;;;;;;;;;5031943;28;20213;-71
2022/07/26 13:54:29;;;;;;;0.60;0.60;;;;;;;;;;5031469;28;20221;-71
2022/07/26 13:56:55;;;;;;;0.98;0.60;;;;;;;;;;5031486;28;20213;-71
2022/07/26 13:59:22;;;;;;;1.23;0.65;;;;;;;;;;5031563;28;20233;-71
2022/07/26 14:01:49;;;;;;;5.32;0.50;;;;;;;;;;5031066;28;20212;-71
2022/07/26 14:04:16;;;;;;;0.55;0.50;;;;;;;;;;5028458;28;20254;-71
2022/07/26 14:06:42;;;;;;;2.75;0.40;;;;;;;;;;5031082;28;20229;-71
2022/07/26 14:09:09;;;;;;;0.70;0.65;;;;;;;;;;5031850;28;20218;-71
2022/07/26 14:11:35;;;;;;;0.50;0.50;;;;;;;;;;5031536;28;20594;-71
2022/07/26 14:14:01;;;;;;;1.63;0.50;;;;;;;;;;5031233;28;20593;-71
2022/07/26 14:16:28;;;;;;;3.83;0.77;;;;;;;;;;5031864;28;20206;-71
2022/07/26 14:18:56;;;;;;;1.88;0.60;;;;;;;;;;5032415;28;20225;-71
2022/07/26 14:21:23;;;;;;;0.50;0.50;;;;;;;;;;5031115;28;20225;-71
2022/07/26 14:23:49;;;;;;;0.80;0.52;;;;;;;;;;5033215;28;20212;-71
2022/07/26 14:26:15;;;;;;;1.20;0.70;;;;;;;;;;5035108;28;20213;-71
2022/07/26 14:28:42;;;;;;;2.25;0.95;;;;;;;;;;5034865;28;20257;-71
2022/07/26 14:31:08;;;;;;;1.25;0.30;;;;;;;;;;5034649;28;20273;-71
2022/07/26 14:33:34;;;;;;;1.77;0.52;;;;;;;;;;5034121;28;20213;-71
2022/07/26 14:36:02;;;;;;;0.50;0.50;;;;;;;;;;5034195;28;20258;-71
2022/07/26 14:38:28;;;;;;;1.30;0.45;;;;;;;;;;5034442;28;20258;-71
2022/07/26 14:40:55;;;;;;;0.32;0.32;;;;;;;;;;5034839;28;20245;-71
2022/07/26 14:43:21;;;;;;;1.20;0.40;;;;;;;;;;5033930;28;20465;-71
2022/07/26 14:45:47;;;;;;;0.52;0.52;;;;;;;;;;5035517;28;20216;-71